Longreach, Australia
Current Conditions -  °F | °C
As of 4:00 PM on Saturday 29 Nov 2014 (Local Time) from YLRE Reporting Station
Clear Clear  
Wind Chill: 97°   Ceiling: Unl
Heat Index: 97°   Visibility: 6mi
Dew Point: 50°   Wind: 13mph
Humidity: 20%   Direction: 20°NNE
Pressure: 29.77"   Gusts: NA
Location:  23.44°S, 144.25°E
Report Text: YLRE 290600Z AUTO 02011KT 9999 // NCD 36/10 Q1008
Loading
Personal Weather Stations






























Interactive Weather Map New forecast layout! Learn more

10-Day Weather Forecast

Advertisements
Track Severe Weather on mobile